createdAt,value
2023-01-15T00:00:09.102Z,44.00
2023-01-15T00:02:38.348Z,43.80
2023-01-15T00:05:08.937Z,43.70
2023-01-15T00:07:39.396Z,43.80
2023-01-15T00:10:10.099Z,43.80
2023-01-15T00:12:39.225Z,43.60
2023-01-15T00:15:09.328Z,43.80
2023-01-15T00:17:38.409Z,43.80
2023-01-15T00:20:08.367Z,43.70
2023-01-15T00:22:39.112Z,43.60
2023-01-15T00:25:26.256Z,43.60
2023-01-15T00:27:55.329Z,43.40
2023-01-15T00:30:24.980Z,43.30
2023-01-15T00:32:54.309Z,43.50
2023-01-15T00:35:25.706Z,43.40
2023-01-15T00:37:56.127Z,43.30
2023-01-15T00:40:24.937Z,43.40
2023-01-15T00:42:54.727Z,43.30
2023-01-15T00:45:24.271Z,43.10
2023-01-15T00:47:53.847Z,43.20
2023-01-15T00:50:22.987Z,43.20
2023-01-15T00:52:51.792Z,43.50
2023-01-15T00:55:23.938Z,43.50
2023-01-15T00:57:52.804Z,43.20
2023-01-15T01:00:22.310Z,43.20
2023-01-15T01:02:51.164Z,43.40
2023-01-15T01:05:20.396Z,43.50
2023-01-15T01:07:49.233Z,43.50
2023-01-15T01:10:18.842Z,43.60
2023-01-15T01:12:51.880Z,43.70
2023-01-15T01:15:22.359Z,43.70
2023-01-15T01:17:51.489Z,43.50
2023-01-15T01:20:20.870Z,44.10
2023-01-15T01:22:50.897Z,43.80
2023-01-15T01:25:20.499Z,43.70
2023-01-15T01:27:51.069Z,43.50
2023-01-15T01:30:20.438Z,43.50
2023-01-15T01:32:49.235Z,43.70
2023-01-15T01:35:18.567Z,43.90
2023-01-15T01:37:51.804Z,43.70
2023-01-15T01:40:21.724Z,43.40
2023-01-15T01:42:52.812Z,43.60
2023-01-15T01:45:26.916Z,43.60
2023-01-15T01:48:01.853Z,43.40
2023-01-15T01:50:33.774Z,43.40
2023-01-15T01:53:09.485Z,43.30
2023-01-15T01:55:39.533Z,43.50
2023-01-15T01:58:13.320Z,43.70
2023-01-15T02:00:49.361Z,43.60
2023-01-15T02:03:22.644Z,43.60
2023-01-15T02:05:59.558Z,43.50
2023-01-15T02:08:32.472Z,43.40
2023-01-15T02:11:02.779Z,43.60
2023-01-15T02:13:41.751Z,43.70
2023-01-15T02:16:21.789Z,43.80
2023-01-15T02:18:59.921Z,43.50
2023-01-15T02:21:51.137Z,43.40
2023-01-15T02:24:33.083Z,43.60
2023-01-15T02:27:13.307Z,43.50
2023-01-15T02:29:54.068Z,43.70
2023-01-15T02:32:36.615Z,43.80
2023-01-15T02:35:14.831Z,43.80
2023-01-15T02:37:50.855Z,43.80
2023-01-15T02:40:23.934Z,43.80
2023-01-15T02:42:58.498Z,43.70
2023-01-15T02:45:32.279Z,43.70
2023-01-15T02:48:13.303Z,43.70
2023-01-15T02:50:47.995Z,43.50
2023-01-15T02:53:26.441Z,43.60
2023-01-15T02:56:04.358Z,43.40
2023-01-15T02:58:43.885Z,43.50
2023-01-15T03:01:20.140Z,43.40
2023-01-15T03:03:59.179Z,43.30
2023-01-15T03:06:39.734Z,43.50
2023-01-15T03:09:10.229Z,43.50
2023-01-15T03:11:49.097Z,43.30
2023-01-15T03:14:28.281Z,43.50
2023-01-15T03:17:05.798Z,43.40
2023-01-15T03:19:45.840Z,43.10
2023-01-15T03:22:27.229Z,43.30
2023-01-15T03:25:04.329Z,43.10
2023-01-15T03:27:37.305Z,43.20
2023-01-15T03:30:13.026Z,43.50
2023-01-15T03:32:42.145Z,43.40
2023-01-15T03:35:47.021Z,43.30
2023-01-15T03:38:29.765Z,43.50
2023-01-15T03:41:15.234Z,43.40
2023-01-15T03:44:03.187Z,43.40
2023-01-15T03:46:56.044Z,43.30
2023-01-15T03:49:39.922Z,43.50
2023-01-15T03:52:23.864Z,43.50
2023-01-15T03:55:11.166Z,43.60
2023-01-15T03:57:49.512Z,43.50
2023-01-15T04:00:26.366Z,43.60
2023-01-15T04:03:04.848Z,43.60
2023-01-15T04:05:39.003Z,43.40
2023-01-15T04:08:10.659Z,43.40
2023-01-15T04:10:39.530Z,43.50
2023-01-15T04:13:12.477Z,43.50
2023-01-15T04:15:43.461Z,43.60
2023-01-15T04:18:14.101Z,43.30
2023-01-15T04:20:43.775Z,43.40
2023-01-15T04:23:14.312Z,43.40
2023-01-15T04:25:43.610Z,43.30
2023-01-15T04:28:14.045Z,43.10
2023-01-15T04:30:43.777Z,43.30
2023-01-15T04:33:14.234Z,43.30
2023-01-15T04:35:43.160Z,43.30
2023-01-15T04:38:12.182Z,43.00
2023-01-15T04:40:58.400Z,42.90
2023-01-15T04:43:45.159Z,42.80
2023-01-15T04:46:14.127Z,43.00
2023-01-15T04:48:44.597Z,42.70
2023-01-15T04:51:13.726Z,42.80
2023-01-15T04:53:42.903Z,42.90
2023-01-15T04:56:11.864Z,42.80
2023-01-15T04:58:40.934Z,42.80
2023-01-15T05:01:14.018Z,42.70
2023-01-15T05:03:45.181Z,42.70
2023-01-15T05:06:14.578Z,42.90
2023-01-15T05:08:43.736Z,42.60
2023-01-15T05:11:13.187Z,42.70
2023-01-15T05:13:42.359Z,42.80
2023-01-15T05:16:14.519Z,42.60
2023-01-15T05:18:46.828Z,42.50
2023-01-15T05:21:18.503Z,42.60
2023-01-15T05:23:48.042Z,42.60
2023-01-15T05:26:17.085Z,42.40
2023-01-15T05:28:46.576Z,42.30
2023-01-15T05:31:18.589Z,42.20
2023-01-15T05:33:50.643Z,42.40
2023-01-15T05:36:22.992Z,42.20
2023-01-15T05:38:52.897Z,41.90
2023-01-15T05:41:41.015Z,41.70
2023-01-15T05:44:12.789Z,41.70
2023-01-15T05:46:44.865Z,41.70
2023-01-15T05:49:18.690Z,42.00
2023-01-15T05:51:48.154Z,41.90
2023-01-15T05:54:21.889Z,41.80
2023-01-15T05:56:50.812Z,41.80
2023-01-15T05:59:22.172Z,41.80
2023-01-15T06:01:51.475Z,41.50
2023-01-15T06:04:22.828Z,41.50
2023-01-15T06:06:53.737Z,41.40
2023-01-15T06:09:24.036Z,41.60
2023-01-15T06:11:54.100Z,41.90
2023-01-15T06:14:23.242Z,42.40
2023-01-15T06:16:52.082Z,42.60
2023-01-15T06:19:22.616Z,42.80
2023-01-15T06:21:51.395Z,42.80
2023-01-15T06:24:20.969Z,43.00
2023-01-15T06:26:49.915Z,42.90
2023-01-15T06:29:20.571Z,43.10
2023-01-15T06:31:50.200Z,42.60
2023-01-15T06:34:19.372Z,42.90
2023-01-15T06:36:49.523Z,42.90
2023-01-15T06:39:18.581Z,43.00
2023-01-15T06:42:19.232Z,43.00
2023-01-15T06:45:05.639Z,43.00
2023-01-15T06:47:34.455Z,43.20
2023-01-15T06:50:03.631Z,43.50
2023-01-15T06:52:33.816Z,43.60
2023-01-15T06:55:02.901Z,43.90
2023-01-15T06:57:31.768Z,44.30
2023-01-15T07:00:01.018Z,44.60
2023-01-15T07:02:29.809Z,45.00
2023-01-15T07:04:58.945Z,45.20
2023-01-15T07:07:30.436Z,45.60
2023-01-15T07:10:00.913Z,46.00
2023-01-15T07:12:30.549Z,46.00
2023-01-15T07:14:59.620Z,46.10
2023-01-15T07:17:28.431Z,46.30
2023-01-15T07:19:57.559Z,46.60
2023-01-15T07:22:26.367Z,46.70
2023-01-15T07:24:55.466Z,46.80
2023-01-15T07:27:25.759Z,47.00
2023-01-15T07:29:54.847Z,47.20
2023-01-15T07:32:23.639Z,47.30
2023-01-15T07:34:52.699Z,47.60
2023-01-15T07:37:21.473Z,47.60
2023-01-15T07:39:50.553Z,47.70
2023-01-15T07:42:37.034Z,47.80
2023-01-15T07:45:23.685Z,47.90
2023-01-15T07:48:09.861Z,47.90
2023-01-15T07:50:38.967Z,48.00
2023-01-15T07:53:07.736Z,48.00
2023-01-15T07:55:37.512Z,48.10
2023-01-15T07:58:06.324Z,48.30
2023-01-15T08:00:36.790Z,48.00
2023-01-15T08:03:06.602Z,48.10
2023-01-15T08:05:35.679Z,48.10
2023-01-15T08:08:04.525Z,48.30
2023-01-15T08:10:53.656Z,48.50
2023-01-15T08:13:39.855Z,48.50
2023-01-15T08:16:11.382Z,48.70
2023-01-15T08:18:40.826Z,48.90
2023-01-15T08:21:16.467Z,48.90
2023-01-15T08:23:46.672Z,49.00
2023-01-15T08:26:15.865Z,49.00
2023-01-15T08:28:44.693Z,49.00
2023-01-15T08:31:15.169Z,49.10
2023-01-15T08:33:44.003Z,49.30
2023-01-15T08:36:13.090Z,49.10
2023-01-15T08:38:41.855Z,48.90
2023-01-15T08:41:10.988Z,49.10
2023-01-15T08:43:39.743Z,49.30
2023-01-15T08:46:09.753Z,49.70
2023-01-15T08:48:40.177Z,49.30
2023-01-15T08:51:12.255Z,49.40
2023-01-15T08:53:41.711Z,49.60
2023-01-15T08:56:14.648Z,49.60
2023-01-15T08:58:44.116Z,49.70
2023-01-15T09:01:16.144Z,49.60
2023-01-15T09:03:46.603Z,49.70
2023-01-15T09:06:15.860Z,49.70
2023-01-15T09:08:44.701Z,49.70
2023-01-15T09:11:14.062Z,49.70
2023-01-15T09:13:44.478Z,49.80
2023-01-15T09:16:13.870Z,49.80
2023-01-15T09:18:43.389Z,49.70
2023-01-15T09:21:13.925Z,50.00
2023-01-15T09:23:42.709Z,50.00
2023-01-15T09:26:29.906Z,50.00
2023-01-15T09:28:59.869Z,50.20
2023-01-15T09:31:29.435Z,50.00
2023-01-15T09:33:59.256Z,50.20
2023-01-15T09:36:31.892Z,50.40
2023-01-15T09:39:02.881Z,50.30
2023-01-15T09:42:08.242Z,50.20
2023-01-15T09:45:15.008Z,51.00
2023-01-15T09:48:02.321Z,50.50
2023-01-15T09:50:48.524Z,50.60
2023-01-15T09:53:43.733Z,50.70
2023-01-15T09:56:22.264Z,50.90
2023-01-15T09:58:53.590Z,51.10
2023-01-15T10:01:30.179Z,51.10
2023-01-15T10:04:07.386Z,51.10
2023-01-15T10:06:45.762Z,51.30
2023-01-15T10:09:23.425Z,51.10
2023-01-15T10:12:19.128Z,51.10
2023-01-15T10:15:01.503Z,51.10
2023-01-15T10:17:41.581Z,51.20
2023-01-15T10:20:25.684Z,51.10
2023-01-15T10:23:20.269Z,51.10
2023-01-15T10:26:00.386Z,51.10
2023-01-15T10:28:32.362Z,51.30
2023-01-15T10:31:13.081Z,51.40
2023-01-15T10:34:04.898Z,51.40
2023-01-15T10:36:38.429Z,51.20
2023-01-15T10:39:21.489Z,51.30
2023-01-15T10:42:08.266Z,51.60
2023-01-15T10:44:51.014Z,51.50
2023-01-15T10:47:27.555Z,51.70
2023-01-15T10:49:59.536Z,51.50
2023-01-15T10:52:35.146Z,51.40
2023-01-15T10:55:18.265Z,51.30
2023-01-15T10:58:09.760Z,51.00
2023-01-15T11:00:41.059Z,50.90
2023-01-15T11:03:21.347Z,50.50
2023-01-15T11:05:50.695Z,50.40
2023-01-15T11:09:06.354Z,50.50
2023-01-15T11:11:44.897Z,50.50
2023-01-15T11:14:32.954Z,50.20
2023-01-15T11:17:19.628Z,50.40
2023-01-15T11:19:53.984Z,50.50
2023-01-15T11:22:23.151Z,51.10
2023-01-15T11:24:56.367Z,50.40
2023-01-15T11:27:29.595Z,50.50
2023-01-15T11:30:02.625Z,50.50
2023-01-15T11:32:35.306Z,50.50
2023-01-15T11:35:18.161Z,50.40
2023-01-15T11:37:46.987Z,50.10
2023-01-15T11:40:20.190Z,50.20
2023-01-15T11:43:08.320Z,50.40
2023-01-15T11:46:06.930Z,50.50
2023-01-15T11:49:01.916Z,50.60
2023-01-15T11:51:42.991Z,50.50
2023-01-15T11:54:16.402Z,50.20
2023-01-15T11:56:48.699Z,50.90
2023-01-15T11:59:20.974Z,49.80
2023-01-15T12:02:00.033Z,50.00
2023-01-15T12:04:38.757Z,50.00
2023-01-15T12:07:14.371Z,50.20
2023-01-15T12:10:14.163Z,50.10
2023-01-15T12:13:07.833Z,49.80
2023-01-15T12:15:51.676Z,49.80
2023-01-15T12:18:52.061Z,49.60
2023-01-15T12:21:53.875Z,49.50
2023-01-15T12:25:12.149Z,49.00
2023-01-15T12:27:57.327Z,48.80
2023-01-15T12:30:39.456Z,48.40
2023-01-15T12:33:23.399Z,48.20
2023-01-15T12:36:03.728Z,48.20
2023-01-15T12:38:57.066Z,47.60
2023-01-15T12:41:46.606Z,47.50
2023-01-15T12:44:40.631Z,47.60
2023-01-15T12:47:19.749Z,47.40
2023-01-15T12:49:57.542Z,47.00
2023-01-15T12:52:36.415Z,47.20
2023-01-15T12:55:15.589Z,47.20
2023-01-15T12:57:50.884Z,47.10
2023-01-15T13:00:26.666Z,45.90
2023-01-15T13:03:16.012Z,46.30
2023-01-15T13:05:50.199Z,46.40
2023-01-15T13:08:28.613Z,46.20
2023-01-15T13:10:58.028Z,46.10
2023-01-15T13:13:31.899Z,45.30
2023-01-15T13:16:17.445Z,45.60
2023-01-15T13:19:02.895Z,45.50
2023-01-15T13:21:36.895Z,45.50
2023-01-15T13:24:56.895Z,45.40
2023-01-15T13:27:49.733Z,45.40
2023-01-15T13:30:41.655Z,45.20
2023-01-15T13:33:28.337Z,45.20
2023-01-15T13:36:07.771Z,44.50
2023-01-15T13:38:44.247Z,44.70
2023-01-15T13:41:37.195Z,44.30
2023-01-15T13:44:06.669Z,44.40
2023-01-15T13:46:35.885Z,44.40
2023-01-15T13:49:05.596Z,44.20
2023-01-15T13:51:39.159Z,44.30
2023-01-15T13:54:17.776Z,44.30
2023-01-15T13:56:48.372Z,44.30
2023-01-15T13:59:45.974Z,44.20
2023-01-15T14:02:30.496Z,44.10
2023-01-15T14:04:59.950Z,43.80
2023-01-15T14:07:36.980Z,43.90
2023-01-15T14:10:26.756Z,43.90
2023-01-15T14:13:26.603Z,44.60
2023-01-15T14:16:13.996Z,43.90
2023-01-15T14:19:09.480Z,43.90
2023-01-15T14:21:56.812Z,43.70
2023-01-15T14:24:57.555Z,43.60
2023-01-15T14:27:54.564Z,43.30
2023-01-15T14:30:59.951Z,43.50
2023-01-15T14:33:46.052Z,43.20
2023-01-15T14:36:21.992Z,43.20
2023-01-15T14:38:57.036Z,42.90
2023-01-15T14:41:31.238Z,43.00
2023-01-15T14:44:03.156Z,43.10
2023-01-15T14:46:38.755Z,43.20
2023-01-15T14:49:29.290Z,43.50
2023-01-15T14:52:00.620Z,43.60
2023-01-15T14:54:31.636Z,43.90
2023-01-15T14:57:03.385Z,43.40
2023-01-15T14:59:48.357Z,43.40
2023-01-15T15:02:25.524Z,43.30
2023-01-15T15:04:58.163Z,43.00
2023-01-15T15:07:39.380Z,43.30
2023-01-15T15:10:22.458Z,43.30
2023-01-15T15:13:04.247Z,43.40
2023-01-15T15:15:48.042Z,43.20
2023-01-15T15:18:32.426Z,43.20
2023-01-15T15:21:09.662Z,43.30
2023-01-15T15:23:47.096Z,42.90
2023-01-15T15:26:27.014Z,43.10
2023-01-15T15:29:01.842Z,43.00
2023-01-15T15:31:37.490Z,43.10
2023-01-15T15:34:17.462Z,43.80
2023-01-15T15:36:48.089Z,43.20
2023-01-15T15:39:24.273Z,43.20
2023-01-15T15:42:16.311Z,43.00
2023-01-15T15:45:11.637Z,43.40
2023-01-15T15:48:00.686Z,43.20
2023-01-15T15:50:34.621Z,43.30
2023-01-15T15:53:04.636Z,43.50
2023-01-15T15:55:40.640Z,43.20
2023-01-15T15:58:23.035Z,43.40
2023-01-15T16:00:53.697Z,43.50
2023-01-15T16:03:25.916Z,43.60
2023-01-15T16:06:01.935Z,43.60
2023-01-15T16:08:32.800Z,43.40
2023-01-15T16:11:06.087Z,43.70
2023-01-15T16:13:42.420Z,43.70
2023-01-15T16:16:14.011Z,43.90
2023-01-15T16:18:47.179Z,43.90
2023-01-15T16:21:25.447Z,44.20
2023-01-15T16:23:58.749Z,44.40
2023-01-15T16:26:36.206Z,44.60
2023-01-15T16:29:19.612Z,44.60
2023-01-15T16:31:49.277Z,44.20
2023-01-15T16:34:22.936Z,44.20
2023-01-15T16:36:53.824Z,44.40
2023-01-15T16:39:28.777Z,44.70
2023-01-15T16:42:02.405Z,44.60
2023-01-15T16:44:43.993Z,44.70
2023-01-15T16:47:25.080Z,45.10
2023-01-15T16:49:54.492Z,45.70
2023-01-15T16:52:54.578Z,45.70
2023-01-15T16:55:45.499Z,46.30
2023-01-15T16:58:22.189Z,47.00
2023-01-15T17:00:55.853Z,47.10
2023-01-15T17:03:28.476Z,47.60
2023-01-15T17:06:01.675Z,47.50
2023-01-15T17:08:39.611Z,47.70
2023-01-15T17:11:22.237Z,47.90
2023-01-15T17:13:52.293Z,48.30
2023-01-15T17:16:23.491Z,48.60
2023-01-15T17:18:53.124Z,48.70
2023-01-15T17:21:28.569Z,48.60
2023-01-15T17:24:00.715Z,48.70
2023-01-15T17:26:29.647Z,48.80
2023-01-15T17:28:58.743Z,48.90
2023-01-15T17:31:30.868Z,49.10
2023-01-15T17:34:02.654Z,49.40
2023-01-15T17:36:34.603Z,49.40
2023-01-15T17:39:05.666Z,49.40
2023-01-15T17:41:34.436Z,49.50
2023-01-15T17:44:04.147Z,49.70
2023-01-15T17:46:32.967Z,49.80
2023-01-15T17:49:02.047Z,49.90
2023-01-15T17:51:30.852Z,50.00
2023-01-15T17:53:59.994Z,50.10
2023-01-15T17:56:47.317Z,50.10
2023-01-15T17:59:34.155Z,50.20
2023-01-15T18:02:18.497Z,50.30
2023-01-15T18:05:09.927Z,50.40
2023-01-15T18:07:42.777Z,50.80
2023-01-15T18:10:18.811Z,50.70
2023-01-15T18:12:49.438Z,50.80
2023-01-15T18:15:19.663Z,50.90
2023-01-15T18:17:48.786Z,51.10
2023-01-15T18:20:18.151Z,51.20
2023-01-15T18:22:47.052Z,51.40
2023-01-15T18:25:16.198Z,51.30
2023-01-15T18:27:45.257Z,51.20
2023-01-15T18:30:18.465Z,51.20
2023-01-15T18:32:47.562Z,51.30
2023-01-15T18:35:18.343Z,51.50
2023-01-15T18:37:47.403Z,52.10
2023-01-15T18:40:16.824Z,51.70
2023-01-15T18:43:02.941Z,51.70
2023-01-15T18:45:50.907Z,51.50
2023-01-15T18:48:19.719Z,51.80
2023-01-15T18:50:49.252Z,51.80
2023-01-15T18:53:18.049Z,52.00
2023-01-15T18:55:47.185Z,52.00
2023-01-15T18:58:16.067Z,52.10
2023-01-15T19:00:46.610Z,52.20
2023-01-15T19:03:15.482Z,52.30
2023-01-15T19:05:44.708Z,52.00
2023-01-15T19:08:13.585Z,52.10
2023-01-15T19:10:42.807Z,51.90
2023-01-15T19:13:13.571Z,52.10
2023-01-15T19:16:01.076Z,51.90
2023-01-15T19:18:44.474Z,51.70
2023-01-15T19:21:13.992Z,51.90
2023-01-15T19:23:43.012Z,51.80
2023-01-15T19:26:12.427Z,51.90
2023-01-15T19:28:41.547Z,51.80
2023-01-15T19:31:29.341Z,51.50
2023-01-15T19:34:31.203Z,51.60
2023-01-15T19:36:50.227Z,51.50
2023-01-15T19:39:19.207Z,51.50
2023-01-15T19:42:05.814Z,51.50
2023-01-15T19:44:52.135Z,51.50
2023-01-15T19:47:46.970Z,51.40
2023-01-15T19:50:21.420Z,51.40
2023-01-15T19:52:52.770Z,51.30
2023-01-15T19:55:24.125Z,51.20
2023-01-15T19:58:00.086Z,51.20
2023-01-15T20:00:30.592Z,51.20
2023-01-15T20:02:59.997Z,51.10
2023-01-15T20:05:32.658Z,51.00
2023-01-15T20:08:01.877Z,51.00
2023-01-15T20:10:31.907Z,51.00
2023-01-15T20:13:19.316Z,51.00
2023-01-15T20:15:48.355Z,51.00
2023-01-15T20:18:18.786Z,50.90
2023-01-15T20:20:49.440Z,50.80
2023-01-15T20:23:18.553Z,50.70
2023-01-15T20:25:53.420Z,50.60
2023-01-15T20:28:22.589Z,51.30
2023-01-15T20:30:53.561Z,50.60
2023-01-15T20:33:23.057Z,50.60
2023-01-15T20:35:54.573Z,50.70
2023-01-15T20:38:24.433Z,50.70
2023-01-15T20:40:53.629Z,50.80
2023-01-15T20:43:40.167Z,50.90
2023-01-15T20:46:12.248Z,51.00
2023-01-15T20:48:58.763Z,50.90
2023-01-15T20:51:29.030Z,50.90
2023-01-15T20:53:59.121Z,50.80
2023-01-15T20:56:27.985Z,50.80
2023-01-15T20:58:58.386Z,50.70
2023-01-15T21:01:28.696Z,50.40
2023-01-15T21:03:57.916Z,50.30
2023-01-15T21:06:28.265Z,50.40
2023-01-15T21:08:57.502Z,50.20
2023-01-15T21:11:26.836Z,50.10
2023-01-15T21:13:55.963Z,50.20
2023-01-15T21:16:24.804Z,50.50
2023-01-15T21:18:54.067Z,50.30
2023-01-15T21:21:22.930Z,50.20
2023-01-15T21:23:53.412Z,50.00
2023-01-15T21:26:24.400Z,50.10
2023-01-15T21:28:55.598Z,50.20
2023-01-15T21:31:24.749Z,50.30
2023-01-15T21:33:55.288Z,50.50
2023-01-15T21:36:24.809Z,50.20
2023-01-15T21:38:57.780Z,50.10
2023-01-15T21:41:41.849Z,50.10
2023-01-15T21:44:34.851Z,50.20
2023-01-15T21:47:06.812Z,50.40
2023-01-15T21:49:36.558Z,50.40
2023-01-15T21:52:10.290Z,50.40
2023-01-15T21:54:41.429Z,50.30
2023-01-15T21:57:11.764Z,49.90
2023-01-15T21:59:41.270Z,49.70
2023-01-15T22:02:16.929Z,49.80
2023-01-15T22:04:47.105Z,50.00
2023-01-15T22:07:18.095Z,50.00
2023-01-15T22:09:48.624Z,50.40
2023-01-15T22:12:17.696Z,49.40
2023-01-15T22:14:47.216Z,49.40
2023-01-15T22:17:16.152Z,49.60
2023-01-15T22:19:45.211Z,49.60
2023-01-15T22:22:14.025Z,49.90
2023-01-15T22:24:43.573Z,50.00
2023-01-15T22:27:17.145Z,49.70
2023-01-15T22:29:46.233Z,49.80
2023-01-15T22:32:16.313Z,50.00
2023-01-15T22:34:45.389Z,50.00
2023-01-15T22:37:15.305Z,49.50
2023-01-15T22:39:44.331Z,49.40
2023-01-15T22:42:27.772Z,49.50
2023-01-15T22:45:00.150Z,49.30
2023-01-15T22:47:30.749Z,49.40
2023-01-15T22:49:59.864Z,49.50
2023-01-15T22:52:28.702Z,49.40
2023-01-15T22:54:57.949Z,49.50
2023-01-15T22:57:31.013Z,49.50
2023-01-15T23:00:00.230Z,50.20
2023-01-15T23:02:46.652Z,49.60
2023-01-15T23:05:15.904Z,49.60
2023-01-15T23:07:44.692Z,49.40
2023-01-15T23:10:14.915Z,49.50
2023-01-15T23:12:45.379Z,49.50
2023-01-15T23:15:16.333Z,48.90
2023-01-15T23:17:45.185Z,49.10
2023-01-15T23:20:15.133Z,49.00
2023-01-15T23:22:44.007Z,48.80
2023-01-15T23:25:13.104Z,49.00
2023-01-15T23:27:41.961Z,48.70
2023-01-15T23:30:14.033Z,48.70
2023-01-15T23:32:43.000Z,48.70
2023-01-15T23:35:12.092Z,49.00
2023-01-15T23:37:40.907Z,49.00
2023-01-15T23:40:11.767Z,49.30
2023-01-15T23:42:58.401Z,49.30
2023-01-15T23:45:51.863Z,49.40
2023-01-15T23:48:20.818Z,49.40
2023-01-15T23:50:49.917Z,49.40
2023-01-15T23:53:18.699Z,49.50
2023-01-15T23:55:47.848Z,49.40
2023-01-15T23:58:16.884Z,49.10
